Republic Airport Farmingdale US
ICAO: KFRG
IATA: FRG
Category: Medium
Scheduled Services: No

Elevation: 82 ft
TransAlt. 18000 ft.

Airport Communications:
NEW YORK APP:118.4
ATIS:126.65
CLNC DEL:128.25
CTAF:118.8
NEW YORK DEP:123.7
GND:121.6
:111.9
TWR:118.8
UNICOM:122.95

KFRG Zoom In..

Runways:

(A) RW 01 length 5516 ft width 150 ft
---- / hdg 13

(B) RW 14 length 6833 ft width 150 ft
ILS 111.90 / hdg 146

(C) RW 19 length 5516 ft width 150 ft
---- / hdg 193

(D) RW 32 length 6833 ft width 150 ft
---- / hdg 326

Location; KFRG
Day. 23 / Time. 06.53 Zulu
* Altimeter: 30.04
* Temperature: 24° c. 75.2°f.
* Wind from: 140° Speed 13 kn.
Dewpoint: 23° c.
Visibility: 9 Statute Miles.
Clouds: Broken 700 ft.
Clouds: Broken 1700 ft.
Clouds: Overcast 9500 ft.

KFRG 230653Z AUTO 14013KT 9SM BKN007 BKN017 OVC095 24/23 A3004 RMK AO2 SLP172 T02390228


Wind From 140°
Speed 13 kn.

 
 
jpsmedia.com for Web Design worldairports.se 2018   terms of use